Time;durP1;ratioP1;P1;durP2;ratioP2;P2;SDS_P1;SDS_P2;PMS_P1;PMS_P2;Temp;Humidity;BMP_temperature;BMP_pressure;BME280_temperature;BME280_humidity;BME280_pressure;Samples;Min_cycle;Max_cycle;Signal;HPM_P1;HPM_P2
2021/03/20 00:02:17;;;;;;;142.93;28.92;;;;;;;23.36;51.23;102293.00;5093507;28;20032;-60
2021/03/20 00:04:42;;;;;;;145.77;27.02;;;;;;;23.34;51.21;102275.81;5092624;28;20119;-60
2021/03/20 00:07:08;;;;;;;153.93;30.05;;;;;;;23.40;51.04;102288.88;5092798;28;20024;-60
2021/03/20 00:09:33;;;;;;;135.07;25.40;;;;;;;23.37;50.06;102283.75;5093683;28;20034;-60
2021/03/20 00:12:00;;;;;;;145.38;28.20;;;;;;;23.35;50.36;102285.81;5093085;28;20370;-61
2021/03/20 00:14:26;;;;;;;138.38;27.50;;;;;;;23.37;50.60;102287.34;5093226;28;20079;-61
2021/03/20 00:16:52;;;;;;;155.18;31.58;;;;;;;23.37;50.59;102281.00;5093385;28;20038;-60
2021/03/20 00:19:19;;;;;;;139.95;25.35;;;;;;;23.36;51.33;102279.28;5093597;28;20020;-60
2021/03/20 00:21:44;;;;;;;144.45;29.73;;;;;;;23.35;51.51;102264.69;5093250;28;20103;-61
2021/03/20 00:24:09;;;;;;;133.30;28.90;;;;;;;23.42;50.58;102268.47;5093173;28;20540;-60
2021/03/20 00:26:36;;;;;;;144.73;27.77;;;;;;;23.32;50.72;102259.53;5075094;28;20032;-60
2021/03/20 00:29:02;;;;;;;150.32;26.95;;;;;;;23.25;50.13;102244.78;5093123;28;20024;-60
2021/03/20 00:31:28;;;;;;;149.45;28.92;;;;;;;23.14;50.40;102233.28;5093300;28;20034;-60
2021/03/20 00:33:53;;;;;;;152.25;29.10;;;;;;;23.13;50.87;102243.41;5093149;28;20032;-60
2021/03/20 00:36:19;;;;;;;145.27;28.45;;;;;;;23.13;50.52;102237.06;5092758;28;20081;-60
2021/03/20 00:38:45;;;;;;;130.15;26.05;;;;;;;23.13;50.69;102237.06;5093158;28;20371;-60
2021/03/20 00:41:10;;;;;;;142.52;29.63;;;;;;;23.15;50.65;102235.84;5092543;28;20032;-61
2021/03/20 00:43:38;;;;;;;152.15;29.02;;;;;;;23.12;50.58;102219.72;5092616;28;20016;-60
2021/03/20 00:46:05;;;;;;;139.43;26.95;;;;;;;23.09;51.25;102220.94;5092772;28;20028;-60
2021/03/20 00:48:32;;;;;;;144.73;27.42;;;;;;;23.11;50.61;102218.88;5092293;28;20031;-60
2021/03/20 00:50:59;;;;;;;142.70;28.90;;;;;;;23.13;50.84;102215.09;5092709;28;20379;-61
2021/03/20 00:53:25;;;;;;;153.13;28.38;;;;;;;23.09;50.14;102207.22;5074659;28;20047;-60
2021/03/20 00:55:51;;;;;;;140.55;27.23;;;;;;;23.10;50.88;102208.94;5092667;28;20051;-60
2021/03/20 00:58:22;;;;;;;146.10;29.65;;;;;;;23.10;50.48;102203.44;5092631;28;20410;-60
2021/03/20 01:00:48;;;;;;;144.07;26.38;;;;;;;23.09;51.15;102193.50;5093033;28;20033;-60
2021/03/20 01:03:14;;;;;;;146.57;26.88;;;;;;;23.11;50.75;102196.06;5092431;28;20027;-60
2021/03/20 01:05:39;;;;;;;149.00;28.60;;;;;;;23.15;50.94;102191.94;5092812;28;20032;-60
2021/03/20 01:08:05;;;;;;;149.55;30.55;;;;;;;23.18;50.40;102186.16;5092576;28;20043;-60
2021/03/20 01:10:30;;;;;;;152.10;29.83;;;;;;;23.15;50.71;102178.25;5092910;28;20024;-61
2021/03/20 01:12:56;;;;;;;138.43;27.65;;;;;;;23.08;50.15;102164.38;5092835;28;20036;-60
2021/03/20 01:15:21;;;;;;;133.40;26.70;;;;;;;23.03;50.30;102172.25;5092658;28;20024;-60
2021/03/20 01:17:46;;;;;;;145.50;28.05;;;;;;;22.93;50.48;102171.56;5074527;28;20487;-60
2021/03/20 01:20:13;;;;;;;146.00;26.17;;;;;;;22.91;50.60;102179.09;5092282;28;20059;-60
2021/03/20 01:22:38;;;;;;;141.90;26.88;;;;;;;22.97;51.67;102185.78;5092560;28;20027;-60
2021/03/20 01:25:05;;;;;;;157.15;27.83;;;;;;;22.96;51.32;102193.13;5092304;28;20032;-60
2021/03/20 01:27:30;;;;;;;131.13;25.13;;;;;;;22.96;52.16;102186.81;5092512;28;20028;-60
2021/03/20 01:29:56;;;;;;;142.02;27.70;;;;;;;22.94;52.25;102173.25;5092407;28;20028;-60
2021/03/20 01:32:22;;;;;;;139.43;28.95;;;;;;;22.95;52.51;102142.06;5092311;28;20024;-60
2021/03/20 01:34:47;;;;;;;134.55;25.92;;;;;;;22.95;52.42;102125.59;5092531;28;20035;-60
2021/03/20 01:37:12;;;;;;;137.43;25.45;;;;;;;22.97;51.92;102129.03;5092242;28;20032;-60
2021/03/20 01:39:37;;;;;;;142.80;25.85;;;;;;;22.97;53.13;102134.53;5092533;28;20051;-61
2021/03/20 01:42:05;;;;;;;137.90;25.17;;;;;;;22.96;53.25;102121.84;5091805;28;20031;-60
2021/03/20 01:44:31;;;;;;;136.45;27.92;;;;;;;23.01;52.21;102113.97;5090540;28;20024;-60
2021/03/20 01:46:56;;;;;;;135.32;28.48;;;;;;;23.00;52.97;102105.88;5092058;28;20030;-60
2021/03/20 01:49:32;;;;;;;138.52;27.73;;;;;;;22.97;52.88;102114.47;5092287;28;20455;-60
2021/03/20 01:52:09;;;;;;;146.50;27.83;;;;;;;22.96;52.87;102105.38;5091923;28;20500;-60
2021/03/20 01:54:52;;;;;;;142.45;26.52;;;;;;;23.00;52.64;102104.00;5074154;28;20487;-60
2021/03/20 01:57:26;;;;;;;142.35;26.23;;;;;;;23.00;52.15;102098.53;5092201;28;20028;-60
2021/03/20 01:59:52;;;;;;;131.55;25.45;;;;;;;22.89;52.20;102096.13;5093060;28;20467;-60
2021/03/20 02:02:18;;;;;;;141.10;26.33;;;;;;;22.88;51.98;102091.69;5095898;28;20039;-60
2021/03/20 02:04:43;;;;;;;131.13;25.90;;;;;;;22.83;51.89;102088.59;5096099;28;20019;-60
2021/03/20 02:07:08;;;;;;;139.18;26.58;;;;;;;22.76;52.12;102076.56;5095525;28;20028;-60
2021/03/20 02:09:35;;;;;;;136.50;26.98;;;;;;;22.78;51.78;102074.50;5096355;28;20028;-60
2021/03/20 02:12:20;;;;;;;134.52;26.80;;;;;;;22.78;52.64;102074.50;5095316;28;20024;-60
2021/03/20 02:15:11;;;;;;;138.40;26.23;;;;;;;22.80;51.25;102056.00;5095457;28;20042;-61
2021/03/20 02:18:01;;;;;;;133.25;25.10;;;;;;;22.85;51.42;102063.75;5078034;28;20394;-60
2021/03/20 02:20:42;;;;;;;138.95;24.92;;;;;;;22.83;51.05;102060.31;5095725;28;20047;-60
2021/03/20 02:23:07;;;;;;;137.07;28.40;;;;;;;22.78;51.39;102049.81;5095096;28;20352;-60
2021/03/20 02:25:48;;;;;;;134.63;26.15;;;;;;;22.81;51.95;102041.25;5095668;28;20110;-60
2021/03/20 02:28:48;;;;;;;123.40;25.60;;;;;;;22.81;51.55;102035.78;5095440;28;20383;-60
2021/03/20 02:31:16;;;;;;;136.52;25.52;;;;;;;22.81;51.08;102033.03;4993403;28;20580;-61
2021/03/20 02:33:59;;;;;;;145.30;25.83;;;;;;;22.80;51.41;102034.91;4993566;28;20034;-61
2021/03/20 02:36:35;;;;;;;160.50;31.85;;;;;;;22.81;51.37;102041.25;4993335;28;20486;-61
2021/03/20 02:39:17;;;;;;;141.63;27.08;;;;;;;22.77;52.17;102039.91;4993303;28;20054;-60
2021/03/20 02:42:01;;;;;;;135.88;26.70;;;;;;;22.81;50.81;102033.03;4983542;28;20061;-61
2021/03/20 02:44:40;;;;;;;129.75;25.00;;;;;;;22.74;50.31;102029.28;4973946;28;20030;-60
2021/03/20 02:47:09;;;;;;;129.05;25.50;;;;;;;22.69;51.03;102020.72;4973673;28;20051;-61
2021/03/20 02:49:57;;;;;;;131.55;26.25;;;;;;;22.61;50.53;102012.47;4973849;28;20042;-61
2021/03/20 02:52:35;;;;;;;128.70;26.88;;;;;;;22.66;50.43;102015.56;4973666;28;20023;-61
2021/03/20 02:55:06;;;;;;;131.05;25.73;;;;;;;22.72;50.65;102009.41;4973312;28;20134;-61
2021/03/20 02:57:39;;;;;;;128.60;26.17;;;;;;;22.70;50.92;102001.34;4973801;28;20042;-61
2021/03/20 03:00:20;;;;;;;132.30;26.63;;;;;;;22.75;50.79;101987.97;4974267;28;20027;-61
2021/03/20 03:02:46;;;;;;;142.73;26.30;;;;;;;22.73;51.00;101991.94;4973540;28;20049;-61
2021/03/20 03:05:17;;;;;;;134.13;28.15;;;;;;;22.73;50.76;101989.19;4973460;28;20031;-60
2021/03/20 03:07:49;;;;;;;136.40;26.67;;;;;;;22.70;51.54;101984.06;5008465;28;20051;-60
2021/03/20 03:10:22;;;;;;;138.07;27.38;;;;;;;22.73;51.03;101978.22;5074431;28;20040;-60
2021/03/20 03:13:15;;;;;;;149.93;28.67;;;;;;;22.60;52.86;101972.41;5092894;28;20024;-60
2021/03/20 03:15:48;;;;;;;149.38;29.02;;;;;;;22.66;52.82;101960.72;5094979;28;20020;-60
2021/03/20 03:18:22;;;;;;;167.07;30.73;;;;;;;22.68;50.78;101964.19;5094393;28;20475;-60
2021/03/20 03:20:52;;;;;;;159.50;29.27;;;;;;;22.76;51.80;101955.94;5094561;28;20040;-60
2021/03/20 03:23:27;;;;;;;152.27;28.88;;;;;;;22.76;50.46;101966.91;5094530;28;20036;-60
2021/03/20 03:26:00;;;;;;;141.52;28.27;;;;;;;22.64;50.30;101951.84;5094380;28;20032;-60
2021/03/20 03:28:28;;;;;;;127.15;24.15;;;;;;;22.63;49.95;101950.97;5094467;28;20048;-60
2021/03/20 03:30:59;;;;;;;132.70;26.02;;;;;;;22.56;50.76;101938.16;5094262;28;20020;-60
2021/03/20 03:33:27;;;;;;;132.90;25.38;;;;;;;22.55;49.69;101936.44;5094403;28;20031;-60
2021/03/20 03:35:58;;;;;;;130.15;27.75;;;;;;;22.62;50.69;101926.50;5094197;28;20090;-60
2021/03/20 03:38:45;;;;;;;136.38;27.38;;;;;;;22.63;51.02;101931.78;5094205;28;20035;-61
2021/03/20 03:41:35;;;;;;;124.65;24.55;;;;;;;22.65;51.14;101921.50;5093547;28;20509;-61
2021/03/20 03:44:01;;;;;;;141.65;28.58;;;;;;;22.66;52.55;101919.63;5093621;28;20090;-60
2021/03/20 03:46:30;;;;;;;136.88;27.23;;;;;;;22.64;52.80;101925.28;5094048;28;20047;-61
2021/03/20 03:48:58;;;;;;;131.85;24.42;;;;;;;22.68;52.64;101923.06;5093929;28;20459;-60
2021/03/20 03:51:25;;;;;;;136.45;25.60;;;;;;;22.66;53.72;101928.69;5093883;28;20420;-61
2021/03/20 03:53:52;;;;;;;141.40;28.17;;;;;;;22.61;53.68;101924.78;5091593;28;20565;-61
2021/03/20 03:56:34;;;;;;;129.77;25.30;;;;;;;22.61;53.47;101922.03;5093765;28;20120;-60
2021/03/20 03:59:22;;;;;;;135.57;25.52;;;;;;;22.64;53.20;101911.56;5093596;28;20476;-60
2021/03/20 04:02:02;;;;;;;136.85;24.88;;;;;;;22.66;52.80;101905.91;5093804;28;20066;-60
2021/03/20 04:04:42;;;;;;;132.50;26.25;;;;;;;22.70;52.37;101910.91;5093743;28;20068;-61
2021/03/20 04:07:25;;;;;;;126.05;24.38;;;;;;;22.60;52.81;101912.09;5093571;28;20024;-61
2021/03/20 04:10:10;;;;;;;135.85;26.90;;;;;;;22.58;52.88;101914.16;5093676;28;20347;-60
2021/03/20 04:12:46;;;;;;;114.88;22.10;;;;;;;22.51;53.30;101909.38;5093097;28;20023;-60
2021/03/20 04:15:31;;;;;;;123.25;23.67;;;;;;;22.49;52.15;101905.09;5093483;28;20031;-60
2021/03/20 04:18:09;;;;;;;116.65;25.35;;;;;;;22.53;52.06;101906.47;5093372;28;20107;-60
2021/03/20 04:20:46;;;;;;;129.18;24.13;;;;;;;22.57;52.35;101887.78;5093418;28;20028;-60
2021/03/20 04:23:17;;;;;;;122.43;24.38;;;;;;;22.57;52.67;101879.56;5092531;28;20542;-60
2021/03/20 04:26:04;;;;;;;133.18;25.15;;;;;;;22.56;51.87;101878.72;5093400;28;20024;-60
2021/03/20 04:28:38;;;;;;;135.05;26.83;;;;;;;22.59;52.31;101875.63;5093353;28;20032;-60
2021/03/20 04:31:10;;;;;;;131.23;26.08;;;;;;;22.58;52.40;101875.78;5093111;28;20020;-60
2021/03/20 04:33:46;;;;;;;125.43;23.88;;;;;;;22.60;51.90;101873.72;5093413;28;20066;-60
2021/03/20 04:36:22;;;;;;;124.13;25.23;;;;;;;22.55;51.93;101865.19;5093083;28;20110;-60
2021/03/20 04:38:47;;;;;;;136.23;25.08;;;;;;;22.51;52.17;101854.59;5093165;28;20024;-60
2021/03/20 04:41:14;;;;;;;127.80;24.90;;;;;;;22.49;52.98;101851.13;5092716;28;20115;-60
2021/03/20 04:43:40;;;;;;;127.50;28.35;;;;;;;22.57;53.08;101852.16;5093086;28;20047;-60
2021/03/20 04:46:16;;;;;;;124.63;24.10;;;;;;;22.63;51.29;101851.44;5092832;28;20020;-60
2021/03/20 04:48:45;;;;;;;131.27;23.48;;;;;;;22.50;51.31;101847.38;5093047;28;20058;-61
2021/03/20 04:51:25;;;;;;;129.38;23.70;;;;;;;22.46;50.55;101837.78;5092809;28;20028;-60
2021/03/20 04:53:53;;;;;;;127.28;25.38;;;;;;;22.42;51.06;101833.69;5092699;28;20043;-61
2021/03/20 04:56:22;;;;;;;121.45;22.90;;;;;;;22.42;51.33;101828.22;5090919;28;20102;-60
2021/03/20 04:58:52;;;;;;;129.02;24.42;;;;;;;22.46;51.21;101824.09;5070579;28;20016;-60
2021/03/20 05:01:23;;;;;;;127.50;23.65;;;;;;;22.48;51.20;101811.06;5092801;28;20369;-61
2021/03/20 05:04:00;;;;;;;133.68;25.38;;;;;;;23.75;47.91;101809.09;5092604;28;20085;-60
2021/03/20 05:06:26;;;;;;;131.40;25.38;;;;;;;23.92;47.15;101800.53;5092556;28;20047;-60
2021/03/20 05:08:59;;;;;;;120.22;23.08;;;;;;;24.20;46.85;101800.78;5092695;28;20061;-60
2021/03/20 05:11:41;;;;;;;120.45;23.75;;;;;;;24.36;46.61;101793.44;5092609;28;20099;-60
2021/03/20 05:14:25;;;;;;;131.65;26.48;;;;;;;24.47;46.97;101792.94;5092651;28;20020;-60
2021/03/20 05:16:57;;;;;;;125.60;27.70;;;;;;;24.54;46.48;101777.44;5092540;28;20024;-60
2021/03/20 05:19:25;;;;;;;119.03;24.38;;;;;;;24.65;46.64;101778.81;5092883;28;20093;-60
2021/03/20 05:21:54;;;;;;;133.38;26.05;;;;;;;24.71;46.66;101778.94;5074392;28;20020;-60
2021/03/20 05:24:30;;;;;;;126.03;24.55;;;;;;;24.81;47.23;101767.63;5092221;28;20031;-61
2021/03/20 05:26:57;;;;;;;138.07;27.17;;;;;;;24.90;46.57;101771.97;5092498;28;20024;-61
2021/03/20 05:29:24;;;;;;;124.90;25.15;;;;;;;24.87;46.04;101755.88;5092604;28;20023;-61
2021/03/20 05:31:49;;;;;;;123.00;23.83;;;;;;;24.78;47.65;101752.34;5092492;28;20024;-60
2021/03/20 05:34:20;;;;;;;122.93;25.05;;;;;;;24.69;46.15;101736.16;5092337;28;20114;-60
2021/03/20 05:36:46;;;;;;;110.28;22.55;;;;;;;24.68;45.95;101735.28;5096446;28;20020;-61
2021/03/20 05:39:12;;;;;;;121.97;26.40;;;;;;;24.75;45.68;101741.75;5096384;28;20028;-60
2021/03/20 05:41:56;;;;;;;124.45;23.73;;;;;;;24.73;48.84;101732.84;5096168;28;20035;-60
2021/03/20 05:44:55;;;;;;;111.18;23.48;;;;;;;24.82;45.86;101734.41;5096072;28;20036;-60
2021/03/20 05:47:34;;;;;;;110.20;23.13;;;;;;;24.88;48.86;101725.41;5096376;28;20387;-60
2021/03/20 05:50:34;;;;;;;114.47;22.90;;;;;;;24.93;47.50;101726.72;5096176;28;20016;-60
2021/03/20 05:53:18;;;;;;;119.70;23.83;;;;;;;24.99;47.09;101724.03;5077732;28;20039;-60
2021/03/20 05:55:46;;;;;;;;;;;;;;;25.05;47.83;101703.19;5097001;28;20052;-60
2021/03/20 05:58:47;;;;;;;128.27;25.88;;;;;;;25.05;47.71;101697.69;5095901;28;19922;-60
2021/03/20 06:01:23;;;;;;;120.28;25.63;;;;;;;25.06;48.45;101705.75;5095843;28;20023;-60
2021/03/20 06:04:16;;;;;;;131.50;26.70;;;;;;;25.12;48.85;101687.59;5096052;28;20039;-60
2021/03/20 06:07:12;;;;;;;120.28;22.00;;;;;;;25.10;49.85;101678.69;5096137;28;20103;-60
2021/03/20 06:09:54;;;;;;;116.78;24.10;;;;;;;25.12;50.57;101690.34;5096086;28;20032;-60
2021/03/20 06:12:40;;;;;;;125.05;26.00;;;;;;;25.23;47.27;101700.00;5057569;28;20028;-60
2021/03/20 06:15:20;;;;;;;144.70;28.75;;;;;;;25.30;49.38;101688.00;5057456;28;20024;-60
2021/03/20 06:18:12;;;;;;;132.48;27.15;;;;;;;25.35;49.83;101698.41;5075488;28;20029;-60
2021/03/20 06:20:48;;;;;;;131.93;27.77;;;;;;;25.46;49.94;101695.97;5075495;28;20029;-60
2021/03/20 06:23:13;;;;;;;163.63;31.17;;;;;;;25.47;49.98;101694.06;5075253;28;20579;-60
2021/03/20 06:25:47;;;;;;;156.77;31.53;;;;;;;25.58;49.09;101692.69;5085676;28;20107;-60
2021/03/20 06:28:17;;;;;;;135.35;29.95;;;;;;;25.57;48.96;101685.50;5095225;28;20269;-60
2021/03/20 06:30:47;;;;;;;123.68;23.48;;;;;;;25.34;48.64;101681.03;5095585;28;20024;-60
2021/03/20 06:33:21;;;;;;;132.60;26.73;;;;;;;25.34;49.58;101674.69;5095407;28;20175;-60
2021/03/20 06:35:50;;;;;;;133.03;26.37;;;;;;;25.30;49.19;101671.47;5095500;28;20042;-60
2021/03/20 06:38:24;;;;;;;127.70;25.83;;;;;;;25.27;49.33;101663.63;5095280;28;20055;-60
2021/03/20 06:41:09;;;;;;;131.23;25.15;;;;;;;25.19;48.81;101655.47;5095302;28;20032;-60
2021/03/20 06:43:40;;;;;;;121.57;25.23;;;;;;;25.17;47.54;101650.19;5095426;28;20031;-60
2021/03/20 06:46:13;;;;;;;124.78;25.55;;;;;;;25.11;47.62;101644.63;5094248;28;20482;-60
2021/03/20 06:48:39;;;;;;;132.88;25.50;;;;;;;25.08;47.96;101634.03;5095076;28;20042;-60
2021/03/20 06:51:04;;;;;;;121.82;26.00;;;;;;;25.11;48.11;101634.47;5094674;28;20024;-60
2021/03/20 06:53:39;;;;;;;118.25;23.75;;;;;;;25.10;48.02;101624.53;5095200;28;20028;-60
2021/03/20 06:56:07;;;;;;;116.22;24.40;;;;;;;25.18;47.84;101637.28;5094104;28;20048;-60
2021/03/20 06:58:35;;;;;;;114.07;22.67;;;;;;;25.17;46.76;101636.44;5094679;28;20509;-60
2021/03/20 07:01:09;;;;;;;115.97;25.13;;;;;;;25.18;47.03;101629.03;5094687;28;20035;-60
2021/03/20 07:03:43;;;;;;;133.40;26.73;;;;;;;25.20;47.00;101624.19;5095033;28;20028;-60
2021/03/20 07:06:25;;;;;;;131.05;29.20;;;;;;;25.21;46.27;101625.91;5094991;28;20024;-60
2021/03/20 07:08:56;;;;;;;122.70;25.85;;;;;;;25.27;47.34;101625.09;5094838;28;20482;-60
2021/03/20 07:11:33;;;;;;;132.90;26.88;;;;;;;25.33;47.06;101607.78;5094825;28;20099;-60
2021/03/20 07:14:02;;;;;;;140.60;28.02;;;;;;;25.39;47.66;101607.00;5094505;28;20051;-60
2021/03/20 07:16:30;;;;;;;148.32;29.63;;;;;;;25.31;47.68;101601.63;5094681;28;20030;-60
2021/03/20 07:18:59;;;;;;;139.02;28.55;;;;;;;25.29;48.41;101600.97;5094556;28;20028;-60
2021/03/20 07:21:31;;;;;;;130.85;25.77;;;;;;;25.32;48.85;101597.81;5094607;28;20443;-60
2021/03/20 07:24:04;;;;;;;128.32;27.40;;;;;;;25.36;47.31;101590.88;5094627;28;20348;-60
2021/03/20 07:26:33;;;;;;;148.75;29.50;;;;;;;25.38;48.65;101588.78;5094200;28;20061;-60
2021/03/20 07:29:01;;;;;;;137.80;26.60;;;;;;;25.39;49.64;101592.38;5094304;28;20408;-60
2021/03/20 07:31:28;;;;;;;130.15;27.52;;;;;;;25.45;47.66;101589.66;5094434;28;20024;-60
2021/03/20 07:33:55;;;;;;;152.32;29.35;;;;;;;25.55;47.57;101588.47;5094241;28;20050;-61
2021/03/20 07:36:35;;;;;;;157.27;33.97;;;;;;;25.61;48.31;101590.41;5094022;28;20111;-60
2021/03/20 07:39:24;;;;;;;142.07;28.38;;;;;;;25.69;47.73;101582.00;5094045;28;20027;-60
2021/03/20 07:41:59;;;;;;;163.68;34.53;;;;;;;25.72;48.16;101568.72;5094100;28;20054;-60
2021/03/20 07:44:26;;;;;;;152.85;32.00;;;;;;;25.80;48.96;101551.16;5094092;28;20024;-60
2021/03/20 07:46:52;;;;;;;134.02;29.30;;;;;;;25.71;49.09;101549.63;5093972;28;20028;-60
2021/03/20 07:49:21;;;;;;;122.97;25.38;;;;;;;25.55;49.84;101555.44;5093953;28;20028;-60
2021/03/20 07:51:49;;;;;;;136.10;28.67;;;;;;;25.56;50.51;101546.13;5094079;28;20031;-60
2021/03/20 07:54:37;;;;;;;132.32;26.85;;;;;;;25.44;50.78;101530.16;5088153;22;20048;-60
2021/03/20 07:57:07;;;;;;;126.25;26.02;;;;;;;25.40;49.11;101526.13;5073667;28;20032;-60
2021/03/20 07:59:33;;;;;;;131.15;28.98;;;;;;;25.32;49.86;101523.50;5073522;28;20119;-60
2021/03/20 08:02:00;;;;;;;134.27;29.27;;;;;;;25.35;49.14;101525.84;5073200;28;20029;-60
2021/03/20 08:04:48;;;;;;;122.88;26.48;;;;;;;25.34;49.85;101520.56;5073740;28;20074;-60
2021/03/20 08:07:29;;;;;;;138.07;26.27;;;;;;;25.39;49.83;101529.06;5073325;28;20052;-60
2021/03/20 08:10:19;;;;;;;122.57;24.63;;;;;;;25.38;50.44;101521.88;5073290;28;20036;-60
2021/03/20 08:13:10;;;;;;;118.63;27.02;;;;;;;25.36;50.17;101513.81;5073491;28;20459;-60
2021/03/20 08:15:39;;;;;;;133.93;28.23;;;;;;;25.43;49.31;101514.69;5073350;28;20017;-60
2021/03/20 08:18:28;;;;;;;136.27;28.75;;;;;;;25.41;50.18;101505.78;5073089;28;20030;-60
2021/03/20 08:21:14;;;;;;;139.32;28.55;;;;;;;25.44;49.45;101488.88;5073088;28;20107;-60
2021/03/20 08:24:04;;;;;;;135.52;27.38;;;;;;;25.45;49.93;101498.81;5073246;28;20029;-60
2021/03/20 08:26:37;;;;;;;144.57;30.77;;;;;;;25.52;49.79;101495.25;5068156;28;20510;-60
2021/03/20 08:29:05;;;;;;;144.93;30.95;;;;;;;25.55;49.32;101489.34;5072728;28;20040;-60
2021/03/20 08:31:40;;;;;;;147.82;30.70;;;;;;;25.49;49.55;101480.84;5073085;28;20020;-60
2021/03/20 08:34:22;;;;;;;163.73;32.83;;;;;;;25.52;49.79;101476.81;5072892;28;20056;-60
2021/03/20 08:37:05;;;;;;;146.45;29.13;;;;;;;25.53;50.74;101475.81;5072886;28;20039;-60
2021/03/20 08:39:59;;;;;;;145.07;28.35;;;;;;;25.58;49.87;101461.41;5055142;28;20024;-60
2021/03/20 08:42:46;;;;;;;142.40;29.45;;;;;;;25.65;49.60;101457.63;5072727;28;20025;-60
2021/03/20 08:45:21;;;;;;;147.88;32.35;;;;;;;25.71;50.11;101458.75;5072704;28;20035;-60
2021/03/20 08:48:12;;;;;;;165.32;35.28;;;;;;;25.77;49.77;101456.03;5072827;28;20020;-60
2021/03/20 08:51:01;;;;;;;153.70;29.95;;;;;;;25.83;49.74;101435.06;5072839;28;20023;-60
2021/03/20 08:53:35;;;;;;;172.45;36.88;;;;;;;25.92;49.84;101444.84;5054716;28;20044;-60
2021/03/20 08:56:19;;;;;;;144.82;31.00;;;;;;;25.91;48.28;101445.06;5072226;28;20039;-60
2021/03/20 08:59:04;;;;;;;136.73;28.58;;;;;;;25.73;49.15;101442.88;5072728;28;20070;-60
2021/03/20 09:01:48;;;;;;;139.32;28.73;;;;;;;25.65;48.74;101432.00;5072427;28;20033;-60
2021/03/20 09:04:16;;;;;;;;;;;;;;;25.59;48.43;101443.84;5072924;28;20048;-60
2021/03/20 09:06:49;;;;;;;129.18;27.67;;;;;;;25.51;47.91;101439.34;5072642;28;19912;-60
2021/03/20 09:09:36;;;;;;;126.10;28.45;;;;;;;25.49;48.49;101442.31;5071935;28;20521;-59
2021/03/20 09:12:06;;;;;;;141.77;29.77;;;;;;;25.47;47.20;101427.03;5072349;28;20448;-60
2021/03/20 09:14:43;;;;;;;129.40;27.55;;;;;;;25.49;48.54;101420.28;5072530;28;20040;-60
2021/03/20 09:17:14;;;;;;;132.40;27.17;;;;;;;25.52;48.45;101419.00;5072290;28;20036;-60
2021/03/20 09:19:49;;;;;;;132.15;26.10;;;;;;;25.54;48.14;101418.84;5072571;28;20036;-60
2021/03/20 09:22:19;;;;;;;137.18;28.63;;;;;;;25.52;48.71;101409.91;5072220;28;20461;-60
2021/03/20 09:24:54;;;;;;;130.90;27.75;;;;;;;25.61;48.71;101411.44;5072124;28;20029;-60
2021/03/20 09:27:57;;;;;;;140.90;29.05;;;;;;;25.61;48.56;101417.78;5072433;28;20029;-60
2021/03/20 09:30:39;;;;;;;140.48;28.48;;;;;;;25.59;48.42;101413.56;5072340;28;20135;-60
2021/03/20 09:33:18;;;;;;;137.07;26.85;;;;;;;25.65;48.40;101407.22;5072155;28;20024;-60
2021/03/20 09:35:47;;;;;;;142.68;31.23;;;;;;;25.62;49.90;101397.47;5072175;28;20028;-60
2021/03/20 09:38:33;;;;;;;157.63;32.25;;;;;;;25.65;48.50;101404.47;5072138;28;20066;-60
2021/03/20 09:40:59;;;;;;;148.63;32.08;;;;;;;25.63;49.96;101403.81;5071974;28;20021;-60
2021/03/20 09:43:33;;;;;;;133.52;29.88;;;;;;;25.67;49.55;101394.09;5072369;28;20390;-60
2021/03/20 09:46:35;;;;;;;151.02;30.88;;;;;;;25.80;50.00;101383.16;5072030;28;20020;-60
2021/03/20 09:49:07;;;;;;;167.30;34.28;;;;;;;25.90;49.92;101367.06;5053999;28;20020;-60
2021/03/20 09:51:58;;;;;;;187.02;35.38;;;;;;;25.99;50.75;101362.19;5054231;28;20035;-60
2021/03/20 09:54:29;;;;;;;162.88;33.70;;;;;;;25.99;50.19;101359.44;5071249;28;20051;-60
2021/03/20 09:57:07;;;;;;;170.35;34.88;;;;;;;26.02;51.07;101356.25;5071639;28;20070;-60
2021/03/20 09:59:34;;;;;;;153.15;31.65;;;;;;;25.84;51.00;101351.38;5072122;28;20035;-60
2021/03/20 10:02:08;;;;;;;143.98;31.17;;;;;;;25.77;51.31;101350.53;5071700;28;20078;-60
2021/03/20 10:05:03;;;;;;;137.10;28.75;;;;;;;25.71;50.95;101341.19;5072057;28;20107;-60
2021/03/20 10:07:30;;;;;;;;;;;;;;;25.68;50.40;101332.47;5072507;28;20039;-60
2021/03/20 10:10:28;;;;;;;134.32;28.05;;;;;;;25.63;49.60;101332.22;5053993;28;19931;-59
2021/03/20 10:12:55;;;;;;;126.25;27.67;;;;;;;25.66;50.04;101329.06;5071661;28;20483;-59
2021/03/20 10:15:28;;;;;;;132.35;27.73;;;;;;;25.64;49.78;101322.91;5071909;28;20047;-60
2021/03/20 10:18:06;;;;;;;134.13;29.73;;;;;;;25.67;50.39;101323.34;5072023;28;20107;-59
2021/03/20 10:20:37;;;;;;;136.75;29.70;;;;;;;25.69;50.16;101320.41;5070715;28;20035;-59
2021/03/20 10:23:11;;;;;;;135.90;30.20;;;;;;;25.72;50.54;101329.13;5074744;28;20029;-60
2021/03/20 10:25:43;;;;;;;147.35;31.15;;;;;;;25.67;49.72;101322.50;5074866;28;20032;-60
2021/03/20 10:28:08;;;;;;;140.65;29.90;;;;;;;25.71;48.29;101307.31;5057245;28;20021;-60
2021/03/20 10:30:36;;;;;;;154.65;35.72;;;;;;;25.70;50.07;101300.09;5075375;28;20456;-60
2021/03/20 10:33:06;;;;;;;179.63;35.72;;;;;;;25.72;50.11;101303.50;5075129;28;20039;-60
2021/03/20 10:35:36;;;;;;;159.93;31.92;;;;;;;25.69;50.02;101288.22;5075028;28;20493;-60
2021/03/20 10:38:27;;;;;;;146.73;30.50;;;;;;;25.71;50.85;101285.28;5075034;28;20036;-59
2021/03/20 10:41:15;;;;;;;154.55;31.90;;;;;;;25.76;49.32;101285.50;5075013;28;20024;-60
2021/03/20 10:43:47;;;;;;;149.30;30.75;;;;;;;25.74;51.03;101274.69;5075195;28;20052;-61
2021/03/20 10:46:29;;;;;;;158.27;32.33;;;;;;;25.90;49.17;101261.56;5074823;28;20047;-60
2021/03/20 10:48:57;;;;;;;181.57;34.78;;;;;;;25.96;48.99;101261.56;5074965;28;20024;-60
2021/03/20 10:51:25;;;;;;;177.32;35.35;;;;;;;26.02;49.76;101246.91;5075503;28;20029;-59
2021/03/20 10:53:53;;;;;;;181.55;34.83;;;;;;;26.02;49.53;101233.13;5074233;28;20033;-60
2021/03/20 10:56:31;;;;;;;157.43;32.85;;;;;;;25.99;50.37;101243.75;5074759;28;20032;-59
2021/03/20 10:59:10;;;;;;;174.65;36.88;;;;;;;25.89;50.01;101235.94;5074723;28;20020;-60
2021/03/20 11:01:36;;;;;;;144.02;27.33;;;;;;;25.88;49.37;101222.38;5074877;28;20043;-60
2021/03/20 11:04:03;;;;;;;143.00;31.20;;;;;;;25.80;49.63;101217.91;5074852;28;20122;-60
2021/03/20 11:06:30;;;;;;;140.68;30.98;;;;;;;25.72;50.14;101227.25;5074342;28;20023;-60
2021/03/20 11:09:15;;;;;;;139.52;28.05;;;;;;;25.75;48.68;101214.94;5074578;28;20028;-60
2021/03/20 11:11:43;;;;;;;134.70;30.13;;;;;;;25.72;49.28;101210.72;5074978;28;20023;-60
2021/03/20 11:14:20;;;;;;;143.00;31.75;;;;;;;25.72;49.25;101209.88;5074387;28;20017;-60
2021/03/20 11:16:52;;;;;;;157.35;33.05;;;;;;;25.71;49.10;101202.66;5074542;28;20020;-60
2021/03/20 11:19:37;;;;;;;145.00;30.80;;;;;;;25.71;49.22;101197.16;5074213;28;20071;-59
2021/03/20 11:22:41;;;;;;;134.18;30.20;;;;;;;25.72;48.28;101190.59;5074456;28;20021;-59
2021/03/20 11:25:15;;;;;;;158.88;31.83;;;;;;;25.71;49.37;101183.41;4988820;28;20031;-60
2021/03/20 11:27:40;;;;;;;159.13;34.65;;;;;;;25.68;49.18;101167.28;4973335;28;20046;-59
2021/03/20 11:30:17;;;;;;;169.77;34.83;;;;;;;25.74;48.84;101153.53;4972919;28;20042;-60
2021/03/20 11:32:44;;;;;;;140.70;29.70;;;;;;;25.70;48.34;101140.41;4972690;28;20038;-60
2021/03/20 11:35:25;;;;;;;157.93;32.30;;;;;;;25.79;49.41;101139.09;4973058;28;20528;-60